createdAt,value
2018-11-14T00:00:50.561Z,20.30
2018-11-14T00:03:18.998Z,20.43
2018-11-14T00:05:47.388Z,20.60
2018-11-14T00:08:15.796Z,20.70
2018-11-14T00:10:44.233Z,21.73
2018-11-14T00:13:12.666Z,22.40
2018-11-14T00:15:41.078Z,22.40
2018-11-14T00:18:09.468Z,23.40
2018-11-14T00:20:37.876Z,21.50
2018-11-14T00:23:06.327Z,21.70
2018-11-14T00:25:34.730Z,21.93
2018-11-14T00:28:03.506Z,21.87
2018-11-14T00:30:31.572Z,22.33
2018-11-14T00:33:00.020Z,22.47
2018-11-14T00:35:28.396Z,21.50
2018-11-14T00:37:56.806Z,21.90
2018-11-14T00:40:25.190Z,24.90
2018-11-14T00:42:53.605Z,23.40
2018-11-14T00:45:22.761Z,22.40
2018-11-14T00:47:51.676Z,22.10
2018-11-14T00:50:20.555Z,21.90
2018-11-14T00:52:48.980Z,22.63
2018-11-14T00:55:19.579Z,23.07
2018-11-14T00:57:48.916Z,21.67
2018-11-14T01:00:22.130Z,22.70
2018-11-14T01:02:50.548Z,22.23
2018-11-14T01:05:19.426Z,23.70
2018-11-14T01:07:47.878Z,23.03
2018-11-14T01:10:17.506Z,24.07
2018-11-14T01:12:46.495Z,23.27
2018-11-14T01:15:16.876Z,23.93
2018-11-14T01:17:45.302Z,23.63
2018-11-14T01:20:15.335Z,21.77
2018-11-14T01:22:44.423Z,24.43
2018-11-14T01:25:13.948Z,24.33
2018-11-14T01:27:42.627Z,24.53
2018-11-14T01:30:19.076Z,23.93
2018-11-14T01:32:48.192Z,23.23
2018-11-14T01:35:17.044Z,23.40
2018-11-14T01:37:45.468Z,24.07
2018-11-14T01:40:15.962Z,24.47
2018-11-14T01:42:45.709Z,25.40
2018-11-14T01:45:14.087Z,24.07
2018-11-14T01:47:42.509Z,23.43
2018-11-14T01:50:11.221Z,24.87
2018-11-14T01:52:39.790Z,24.83
2018-11-14T01:55:10.025Z,24.13
2018-11-14T01:57:38.434Z,22.40
2018-11-14T02:00:10.882Z,23.20
2018-11-14T02:02:39.386Z,22.37
2018-11-14T02:05:08.411Z,22.87
2018-11-14T02:07:37.167Z,22.53
2018-11-14T02:10:08.500Z,23.83
2018-11-14T02:12:37.363Z,23.77
2018-11-14T02:15:07.660Z,22.40
2018-11-14T02:17:36.392Z,21.60
2018-11-14T02:20:05.741Z,22.27
2018-11-14T02:22:34.159Z,23.13
2018-11-14T02:25:02.680Z,23.43
2018-11-14T02:27:31.075Z,22.67
2018-11-14T02:29:59.509Z,24.33
2018-11-14T02:32:27.939Z,23.93
2018-11-14T02:34:56.371Z,25.63
2018-11-14T02:37:24.858Z,24.57
2018-11-14T02:39:53.156Z,25.13
2018-11-14T02:42:21.590Z,24.77
2018-11-14T02:44:50.027Z,25.67
2018-11-14T02:47:18.403Z,25.60
2018-11-14T02:49:46.889Z,24.50
2018-11-14T02:52:15.281Z,25.67
2018-11-14T02:54:43.695Z,23.97
2018-11-14T02:57:12.109Z,24.27
2018-11-14T02:59:40.496Z,24.30
2018-11-14T03:02:09.018Z,25.37
2018-11-14T03:04:37.394Z,24.67
2018-11-14T03:07:05.869Z,26.27
2018-11-14T03:09:34.257Z,25.33
2018-11-14T03:12:02.644Z,26.33
2018-11-14T03:14:31.026Z,24.43
2018-11-14T03:16:59.425Z,25.87
2018-11-14T03:19:27.818Z,25.43
2018-11-14T03:21:56.232Z,25.67
2018-11-14T03:24:24.646Z,24.07
2018-11-14T03:26:53.065Z,24.63
2018-11-14T03:29:21.471Z,23.87
2018-11-14T03:31:49.900Z,25.53
2018-11-14T03:34:18.321Z,24.83
2018-11-14T03:36:46.693Z,23.37
2018-11-14T03:39:15.094Z,24.13
2018-11-14T03:41:43.502Z,24.80
2018-11-14T03:44:11.930Z,23.87
2018-11-14T03:46:40.337Z,25.60
2018-11-14T03:49:08.755Z,24.37
2018-11-14T03:51:37.144Z,24.07
2018-11-14T03:54:05.805Z,23.30
2018-11-14T03:56:34.193Z,23.90
2018-11-14T03:59:02.610Z,23.40
2018-11-14T04:01:31.018Z,21.93
2018-11-14T04:03:59.408Z,22.63
2018-11-14T04:06:27.780Z,23.97
2018-11-14T04:08:56.181Z,22.87
2018-11-14T04:11:24.580Z,24.10
2018-11-14T04:13:53.026Z,23.43
2018-11-14T04:16:21.476Z,22.73
2018-11-14T04:18:49.858Z,21.20
2018-11-14T04:21:18.243Z,22.47
2018-11-14T04:23:51.391Z,21.90
2018-11-14T04:26:19.780Z,21.07
2018-11-14T04:28:48.199Z,21.10
2018-11-14T04:31:16.804Z,22.00
2018-11-14T04:33:45.308Z,20.80
2018-11-14T04:36:13.691Z,21.33
2018-11-14T04:38:42.083Z,21.53
2018-11-14T04:41:10.546Z,20.93
2018-11-14T04:43:38.968Z,21.53
2018-11-14T04:46:07.336Z,20.77
2018-11-14T04:48:35.769Z,20.53
2018-11-14T04:51:04.335Z,20.83
2018-11-14T04:53:32.732Z,21.13
2018-11-14T04:56:01.144Z,20.10
2018-11-14T04:58:29.521Z,20.47
2018-11-14T05:00:57.961Z,21.07
2018-11-14T05:03:26.362Z,21.00
2018-11-14T05:05:54.777Z,21.17
2018-11-14T05:08:23.156Z,20.70
2018-11-14T05:10:51.529Z,19.63
2018-11-14T05:13:19.956Z,20.10
2018-11-14T05:15:48.358Z,20.50
2018-11-14T05:18:16.794Z,21.47
2018-11-14T05:20:45.336Z,20.60
2018-11-14T05:23:13.718Z,22.00
2018-11-14T05:25:42.131Z,21.93
2018-11-14T05:28:10.553Z,20.80
2018-11-14T05:30:38.947Z,21.50
2018-11-14T05:33:07.346Z,22.77
2018-11-14T05:35:35.738Z,22.47
2018-11-14T05:38:04.258Z,21.80
2018-11-14T05:40:32.670Z,22.23
2018-11-14T05:43:01.053Z,22.00
2018-11-14T05:45:30.524Z,20.50
2018-11-14T05:47:58.830Z,21.40
2018-11-14T05:50:27.240Z,19.80
2018-11-14T05:52:55.645Z,20.20
2018-11-14T05:55:24.038Z,19.63
2018-11-14T05:57:52.421Z,20.30
2018-11-14T06:00:27.708Z,20.57
2018-11-14T06:02:56.590Z,19.87
2018-11-14T06:05:25.071Z,20.37
2018-11-14T06:07:53.528Z,20.50
2018-11-14T06:10:21.942Z,20.50
2018-11-14T06:12:50.384Z,20.63
2018-11-14T06:15:19.659Z,20.37
2018-11-14T06:17:48.603Z,18.20
2018-11-14T06:20:18.206Z,18.10
2018-11-14T06:22:47.452Z,16.87
2018-11-14T06:25:21.601Z,17.63
2018-11-14T06:27:51.068Z,18.67
2018-11-14T06:30:19.927Z,16.83
2018-11-14T06:32:48.376Z,16.83
2018-11-14T06:35:17.379Z,17.33
2018-11-14T06:37:45.810Z,17.30
2018-11-14T06:40:14.206Z,18.23
2018-11-14T06:42:42.656Z,16.70
2018-11-14T06:45:16.062Z,15.80
2018-11-14T06:47:45.845Z,18.13
2018-11-14T06:50:15.045Z,22.23
2018-11-14T06:52:45.075Z,23.07
2018-11-14T06:55:20.383Z,21.00
2018-11-14T06:57:50.050Z,19.33
2018-11-14T07:00:34.365Z,19.53
2018-11-14T07:03:04.142Z,19.00
2018-11-14T07:05:32.691Z,18.80
2018-11-14T07:08:01.061Z,18.23
2018-11-14T07:10:31.995Z,16.77
2018-11-14T07:13:04.518Z,16.47
2018-11-14T07:15:36.195Z,16.40
2018-11-14T07:18:04.784Z,17.10
2018-11-14T07:20:37.450Z,14.90
2018-11-14T07:23:05.951Z,13.90
2018-11-14T07:25:34.374Z,15.00
2018-11-14T07:28:02.855Z,14.43
2018-11-14T07:30:32.010Z,13.73
2018-11-14T07:33:03.918Z,13.90
2018-11-14T07:35:34.945Z,13.10
2018-11-14T07:38:43.241Z,12.97
2018-11-14T07:41:14.018Z,14.67
2018-11-14T07:43:42.918Z,14.53
2018-11-14T07:46:11.986Z,14.13
2018-11-14T07:48:41.335Z,14.03
2018-11-14T07:51:09.962Z,12.50
2018-11-14T07:53:38.509Z,13.70
2018-11-14T07:56:07.894Z,12.37
2018-11-14T07:58:36.479Z,12.67
2018-11-14T08:01:05.187Z,13.13
2018-11-14T08:03:33.700Z,12.70
2018-11-14T08:06:02.201Z,13.20
2018-11-14T08:08:30.675Z,11.37
2018-11-14T08:10:59.102Z,11.53
2018-11-14T08:13:28.798Z,10.80
2018-11-14T08:15:58.471Z,10.60
2018-11-14T08:18:27.083Z,11.07
2018-11-14T08:20:56.178Z,10.60
2018-11-14T08:23:24.612Z,9.57
2018-11-14T08:25:54.426Z,9.67
2018-11-14T08:28:22.971Z,9.80
2018-11-14T08:30:51.516Z,9.47
2018-11-14T08:33:20.079Z,9.70
2018-11-14T08:35:48.586Z,10.37
2018-11-14T08:38:17.207Z,9.50
2018-11-14T08:40:45.729Z,10.10
2018-11-14T08:43:14.340Z,10.53
2018-11-14T08:45:42.873Z,9.97
2018-11-14T08:48:11.781Z,10.27
2018-11-14T08:50:40.359Z,10.13
2018-11-14T08:53:10.273Z,9.17
2018-11-14T08:55:39.598Z,9.33
2018-11-14T08:58:09.794Z,9.43
2018-11-14T09:00:38.270Z,9.07
2018-11-14T09:03:07.819Z,9.33
2018-11-14T09:05:36.254Z,9.93
2018-11-14T09:08:12.560Z,9.13
2018-11-14T09:10:41.144Z,10.30
2018-11-14T09:13:16.814Z,9.03
2018-11-14T09:15:45.289Z,8.70
2018-11-14T09:18:14.317Z,9.73
2018-11-14T09:20:42.713Z,8.30
2018-11-14T09:23:11.174Z,8.63
2018-11-14T09:25:39.697Z,9.73
2018-11-14T09:28:08.417Z,8.77
2018-11-14T09:30:37.137Z,8.60
2018-11-14T09:33:06.086Z,8.87
2018-11-14T09:35:34.570Z,8.70
2018-11-14T09:38:03.132Z,7.90
2018-11-14T09:40:31.579Z,8.40
2018-11-14T09:43:00.155Z,7.90
2018-11-14T09:45:29.935Z,7.43
2018-11-14T09:47:58.463Z,7.93
2018-11-14T09:50:30.229Z,7.70
2018-11-14T09:53:00.091Z,8.67
2018-11-14T09:55:28.491Z,7.67
2018-11-14T09:57:56.910Z,8.30
2018-11-14T10:00:29.552Z,8.03
2018-11-14T10:03:04.163Z,7.63
2018-11-14T10:05:32.571Z,7.40
2018-11-14T10:08:01.038Z,7.43
2018-11-14T10:10:29.448Z,7.30
2018-11-14T10:12:57.999Z,7.83
2018-11-14T10:15:26.513Z,7.53
2018-11-14T10:17:55.001Z,7.73
2018-11-14T10:20:24.316Z,7.00
2018-11-14T10:22:52.886Z,7.10
2018-11-14T10:25:21.478Z,7.13
2018-11-14T10:27:51.272Z,6.87
2018-11-14T10:30:24.599Z,6.77
2018-11-14T10:32:53.593Z,7.10
2018-11-14T10:35:22.074Z,6.73
2018-11-14T10:37:50.518Z,6.63
2018-11-14T10:40:21.859Z,6.90
2018-11-14T10:42:50.424Z,6.13
2018-11-14T10:45:20.226Z,6.40
2018-11-14T10:47:48.706Z,6.27
2018-11-14T10:50:20.783Z,6.60
2018-11-14T10:52:49.319Z,6.80
2018-11-14T10:55:18.417Z,6.70
2018-11-14T10:57:47.002Z,6.90
2018-11-14T11:00:24.021Z,6.00
2018-11-14T11:02:59.020Z,6.13
2018-11-14T11:05:32.525Z,6.40
2018-11-14T11:08:36.310Z,6.27
2018-11-14T11:11:10.427Z,6.83
2018-11-14T11:14:13.356Z,6.50
2018-11-14T11:16:48.259Z,6.27
2018-11-14T11:19:24.007Z,5.40
2018-11-14T11:21:57.803Z,5.87
2018-11-14T11:24:26.780Z,5.90
2018-11-14T11:26:56.319Z,5.40
2018-11-14T11:29:26.605Z,5.57
2018-11-14T11:31:55.458Z,6.07
2018-11-14T11:34:23.840Z,5.90
2018-11-14T11:36:52.441Z,6.00
2018-11-14T11:39:20.866Z,6.20
2018-11-14T11:41:49.316Z,6.30
2018-11-14T11:44:20.672Z,6.50
2018-11-14T11:46:49.200Z,6.10
2018-11-14T11:49:17.701Z,6.53
2018-11-14T11:51:46.130Z,6.47
2018-11-14T11:54:14.612Z,6.37
2018-11-14T11:56:45.321Z,6.90
2018-11-14T11:59:13.793Z,6.40
2018-11-14T12:01:42.233Z,6.37
2018-11-14T12:04:10.959Z,6.17
2018-11-14T12:06:39.899Z,5.97
2018-11-14T12:09:10.098Z,4.90
2018-11-14T12:11:38.549Z,4.33
2018-11-14T12:14:07.170Z,4.90
2018-11-14T12:16:35.719Z,4.73
2018-11-14T12:19:04.360Z,4.57
2018-11-14T12:21:32.833Z,4.30
2018-11-14T12:24:01.232Z,3.70
2018-11-14T12:26:29.711Z,4.10
2018-11-14T12:28:58.191Z,3.77
2018-11-14T12:31:26.737Z,4.10
2018-11-14T12:33:55.190Z,3.93
2018-11-14T12:36:23.630Z,4.63
2018-11-14T12:38:52.127Z,4.23
2018-11-14T12:41:20.522Z,3.73
2018-11-14T12:43:48.925Z,4.03
2018-11-14T12:46:17.352Z,3.90
2018-11-14T12:48:45.875Z,4.33
2018-11-14T12:51:14.332Z,3.80
2018-11-14T12:53:42.857Z,4.30
2018-11-14T12:56:11.380Z,4.37
2018-11-14T12:58:39.905Z,4.57
2018-11-14T13:01:09.092Z,4.63
2018-11-14T13:03:37.995Z,4.10
2018-11-14T13:06:06.561Z,4.47
2018-11-14T13:08:35.070Z,4.20
2018-11-14T13:11:04.186Z,4.13
2018-11-14T13:13:37.998Z,4.33
2018-11-14T13:16:06.537Z,4.17
2018-11-14T13:18:36.416Z,4.07
2018-11-14T13:21:05.138Z,4.67
2018-11-14T13:23:33.580Z,3.83
2018-11-14T13:26:02.089Z,3.57
2018-11-14T13:28:31.198Z,3.27
2018-11-14T13:30:59.769Z,3.73
2018-11-14T13:33:28.291Z,3.10
2018-11-14T13:35:57.006Z,2.80
2018-11-14T13:38:25.438Z,3.17
2018-11-14T13:40:53.914Z,2.93
2018-11-14T13:43:22.406Z,2.70
2018-11-14T13:45:50.792Z,3.40
2018-11-14T13:48:19.302Z,2.50
2018-11-14T13:50:48.113Z,2.80
2018-11-14T13:53:16.331Z,2.90
2018-11-14T13:55:44.866Z,3.00
2018-11-14T13:58:13.306Z,3.00
2018-11-14T14:00:41.743Z,2.70
2018-11-14T14:03:10.168Z,3.00
2018-11-14T14:05:38.594Z,2.70
2018-11-14T14:08:07.104Z,2.67
2018-11-14T14:10:35.524Z,2.90
2018-11-14T14:13:03.971Z,3.17
2018-11-14T14:15:32.385Z,2.80
2018-11-14T14:18:00.910Z,3.07
2018-11-14T14:20:29.346Z,3.40
2018-11-14T14:22:57.775Z,3.30
2018-11-14T14:25:26.253Z,4.00
2018-11-14T14:27:54.683Z,3.53
2018-11-14T14:30:23.751Z,3.60
2018-11-14T14:32:52.312Z,3.57
2018-11-14T14:35:21.799Z,3.90
2018-11-14T14:37:50.591Z,3.10
2018-11-14T14:40:20.453Z,2.80
2018-11-14T14:42:49.032Z,3.00
2018-11-14T14:45:19.046Z,3.30
2018-11-14T14:47:47.498Z,3.20
2018-11-14T14:50:17.201Z,2.90
2018-11-14T14:52:45.826Z,2.70
2018-11-14T14:55:16.869Z,3.23
2018-11-14T14:57:46.059Z,3.27
2018-11-14T15:00:22.150Z,3.03
2018-11-14T15:02:50.594Z,3.13
2018-11-14T15:05:19.010Z,3.03
2018-11-14T15:07:47.441Z,3.30
2018-11-14T15:10:17.070Z,3.40
2018-11-14T15:12:45.466Z,3.20
2018-11-14T15:15:14.519Z,3.80
2018-11-14T15:17:43.257Z,3.30
2018-11-14T15:20:15.395Z,3.50
2018-11-14T15:22:44.002Z,2.97
2018-11-14T15:25:13.954Z,3.80
2018-11-14T15:27:43.044Z,3.43
2018-11-14T15:30:16.253Z,3.40
2018-11-14T15:32:44.699Z,3.63
2018-11-14T15:35:13.636Z,3.87
2018-11-14T15:37:42.034Z,3.53
2018-11-14T15:40:12.599Z,4.13
2018-11-14T15:42:41.096Z,3.57
2018-11-14T15:45:11.566Z,4.10
2018-11-14T15:47:40.070Z,3.90
2018-11-14T15:50:11.931Z,4.10
2018-11-14T15:52:40.825Z,4.40
2018-11-14T15:55:10.613Z,4.00
2018-11-14T15:57:39.281Z,5.13
2018-11-14T16:00:11.701Z,4.63
2018-11-14T16:02:40.428Z,4.50
2018-11-14T16:05:11.081Z,4.53
2018-11-14T16:07:40.171Z,3.80
2018-11-14T16:10:09.801Z,4.20
2018-11-14T16:12:39.386Z,5.27
2018-11-14T16:15:09.098Z,4.97
2018-11-14T16:17:38.153Z,4.33
2018-11-14T16:20:08.691Z,4.93
2018-11-14T16:22:37.546Z,4.60
2018-11-14T16:25:07.060Z,5.47
2018-11-14T16:27:35.355Z,6.20
2018-11-14T16:30:04.267Z,5.70
2018-11-14T16:32:32.702Z,4.63
2018-11-14T16:35:01.136Z,4.97
2018-11-14T16:37:29.558Z,5.00
2018-11-14T16:39:58.070Z,4.53
2018-11-14T16:42:26.548Z,4.73
2018-11-14T16:44:54.968Z,5.10
2018-11-14T16:47:23.588Z,5.20
2018-11-14T16:49:52.117Z,4.90
2018-11-14T16:52:20.532Z,5.00
2018-11-14T16:54:48.962Z,4.43
2018-11-14T16:57:17.398Z,4.30
2018-11-14T16:59:45.835Z,4.30
2018-11-14T17:02:14.302Z,4.90
2018-11-14T17:04:42.780Z,4.40
2018-11-14T17:07:11.169Z,5.23
2018-11-14T17:09:39.616Z,4.50
2018-11-14T17:12:08.058Z,5.27
2018-11-14T17:14:36.593Z,5.07
2018-11-14T17:17:05.072Z,6.60
2018-11-14T17:19:33.505Z,6.83
2018-11-14T17:22:01.974Z,6.67
2018-11-14T17:24:30.667Z,6.30
2018-11-14T17:26:59.060Z,8.13
2018-11-14T17:29:27.536Z,7.80
2018-11-14T17:31:56.013Z,7.80
2018-11-14T17:34:24.494Z,8.10
2018-11-14T17:36:52.921Z,6.73
2018-11-14T17:39:21.380Z,6.90
2018-11-14T17:41:49.879Z,6.10
2018-11-14T17:44:18.251Z,7.30
2018-11-14T17:46:46.707Z,8.10
2018-11-14T17:49:15.133Z,8.17
2018-11-14T17:51:43.597Z,7.47
2018-11-14T17:54:12.043Z,7.20
2018-11-14T17:56:40.531Z,6.27
2018-11-14T17:59:08.988Z,5.40
2018-11-14T18:01:37.454Z,5.60
2018-11-14T18:04:05.939Z,6.50
2018-11-14T18:06:34.491Z,7.03
2018-11-14T18:09:02.985Z,6.70
2018-11-14T18:11:31.442Z,7.10
2018-11-14T18:13:59.890Z,6.60
2018-11-14T18:16:28.348Z,8.80
2018-11-14T18:18:56.796Z,7.23
2018-11-14T18:21:25.237Z,7.03
2018-11-14T18:23:53.741Z,7.93
2018-11-14T18:26:22.238Z,7.57
2018-11-14T18:28:50.686Z,9.23
2018-11-14T18:31:19.214Z,8.67
2018-11-14T18:33:47.671Z,8.03
2018-11-14T18:36:16.128Z,11.03
2018-11-14T18:38:44.599Z,12.80
2018-11-14T18:41:13.029Z,11.50
2018-11-14T18:43:41.453Z,9.90
2018-11-14T18:46:09.901Z,9.90
2018-11-14T18:48:38.390Z,12.83
2018-11-14T18:51:06.809Z,13.67
2018-11-14T18:53:35.270Z,12.80
2018-11-14T18:56:03.731Z,12.07
2018-11-14T18:58:32.226Z,10.10
2018-11-14T19:01:00.710Z,12.33
2018-11-14T19:03:29.197Z,12.27
2018-11-14T19:05:57.681Z,10.90
2018-11-14T19:08:26.143Z,10.60
2018-11-14T19:10:54.588Z,14.27
2018-11-14T19:13:23.111Z,16.83
2018-11-14T19:15:51.549Z,14.80
2018-11-14T19:18:21.013Z,14.23
2018-11-14T19:20:49.660Z,13.97
2018-11-14T19:23:18.117Z,13.30
2018-11-14T19:25:46.614Z,12.43
2018-11-14T19:28:15.056Z,12.17
2018-11-14T19:30:43.605Z,12.30
2018-11-14T19:33:11.992Z,10.73
2018-11-14T19:35:40.483Z,12.37
2018-11-14T19:38:08.902Z,11.20
2018-11-14T19:40:38.050Z,11.10
2018-11-14T19:43:08.251Z,11.37
2018-11-14T19:45:37.804Z,11.80
2018-11-14T19:48:06.861Z,12.90
2018-11-14T19:50:35.425Z,12.33
2018-11-14T19:53:04.021Z,13.90
2018-11-14T19:55:33.195Z,13.13
2018-11-14T19:58:02.730Z,13.33
2018-11-14T20:00:32.493Z,13.53
2018-11-14T20:03:00.939Z,13.60
2018-11-14T20:05:29.380Z,14.20
2018-11-14T20:07:57.880Z,13.70
2018-11-14T20:10:27.757Z,14.43
2018-11-14T20:12:56.295Z,13.57
2018-11-14T20:15:26.228Z,14.73
2018-11-14T20:17:54.726Z,14.70
2018-11-14T20:20:24.474Z,13.90
2018-11-14T20:22:53.095Z,14.50
2018-11-14T20:25:21.584Z,14.43
2018-11-14T20:27:50.110Z,14.00
2018-11-14T20:30:21.746Z,14.23
2018-11-14T20:32:50.694Z,16.13
2018-11-14T20:35:20.167Z,14.77
2018-11-14T20:37:48.651Z,14.97
2018-11-14T20:40:18.700Z,14.77
2018-11-14T20:42:47.853Z,14.30
2018-11-14T20:45:18.931Z,13.83
2018-11-14T20:47:47.373Z,15.13
2018-11-14T20:50:17.341Z,14.77
2018-11-14T20:52:46.785Z,14.03
2018-11-14T20:55:15.255Z,15.17
2018-11-14T20:57:44.220Z,14.57
2018-11-14T21:00:17.466Z,14.47
2018-11-14T21:02:45.915Z,15.33
2018-11-14T21:05:14.383Z,14.67
2018-11-14T21:07:43.459Z,15.87
2018-11-14T21:10:14.106Z,15.13
2018-11-14T21:12:42.954Z,14.53
2018-11-14T21:15:14.482Z,13.87
2018-11-14T21:17:43.243Z,15.20
2018-11-14T21:20:11.900Z,14.57
2018-11-14T21:22:41.008Z,15.10
2018-11-14T21:25:11.117Z,14.07
2018-11-14T21:27:40.564Z,14.90
2018-11-14T21:30:10.475Z,14.30
2018-11-14T21:32:39.646Z,15.03
2018-11-14T21:35:11.074Z,13.47
2018-11-14T21:37:39.573Z,14.37
2018-11-14T21:40:08.953Z,13.50
2018-11-14T21:42:37.875Z,13.83
2018-11-14T21:45:08.155Z,14.23
2018-11-14T21:47:41.813Z,13.33
2018-11-14T21:50:10.263Z,13.63
2018-11-14T21:52:38.729Z,14.20
2018-11-14T21:55:08.195Z,13.40
2018-11-14T21:57:36.940Z,13.57
2018-11-14T22:00:10.946Z,12.97
2018-11-14T22:02:39.436Z,12.20
2018-11-14T22:05:08.665Z,12.97
2018-11-14T22:07:37.491Z,15.70
2018-11-14T22:10:08.100Z,13.90
2018-11-14T22:12:36.563Z,13.03
2018-11-14T22:15:05.454Z,13.20
2018-11-14T22:17:33.957Z,12.77
2018-11-14T22:20:02.371Z,13.83
2018-11-14T22:22:30.820Z,12.33
2018-11-14T22:24:59.332Z,11.87
2018-11-14T22:27:27.790Z,13.17
2018-11-14T22:29:56.250Z,12.17
2018-11-14T22:32:24.763Z,12.93
2018-11-14T22:34:53.282Z,12.80
2018-11-14T22:37:21.941Z,11.97
2018-11-14T22:39:50.413Z,13.83
2018-11-14T22:42:19.387Z,12.77
2018-11-14T22:44:47.871Z,13.50
2018-11-14T22:47:16.314Z,12.27
2018-11-14T22:49:44.824Z,13.47
2018-11-14T22:52:13.214Z,14.00
2018-11-14T22:54:41.663Z,12.77
2018-11-14T22:57:10.083Z,12.97
2018-11-14T22:59:38.520Z,13.57
2018-11-14T23:02:07.159Z,13.93
2018-11-14T23:04:35.544Z,13.47
2018-11-14T23:07:04.041Z,12.20
2018-11-14T23:09:32.440Z,12.90
2018-11-14T23:12:00.866Z,12.57
2018-11-14T23:14:29.279Z,15.37
2018-11-14T23:16:57.691Z,14.47
2018-11-14T23:19:26.147Z,15.03
2018-11-14T23:21:54.566Z,13.20
2018-11-14T23:24:22.993Z,13.53
2018-11-14T23:26:51.432Z,16.07
2018-11-14T23:29:19.869Z,13.87
2018-11-14T23:31:48.280Z,14.57
2018-11-14T23:34:16.724Z,13.43
2018-11-14T23:36:45.149Z,12.57
2018-11-14T23:39:14.181Z,12.87
2018-11-14T23:41:42.566Z,13.27
2018-11-14T23:44:10.987Z,14.00
2018-11-14T23:46:39.382Z,13.10
2018-11-14T23:49:07.898Z,13.50
2018-11-14T23:51:36.296Z,13.40
2018-11-14T23:54:05.204Z,13.50
2018-11-14T23:56:33.609Z,14.73
2018-11-14T23:59:02.057Z,12.93
